Time;durP1;ratioP1;P1;durP2;ratioP2;P2;SDS_P1;SDS_P2;PMS_P1;PMS_P2;Temp;Humidity;BMP_temperature;BMP_pressure;BME280_temperature;BME280_humidity;BME280_pressure;Samples;Min_cycle;Max_cycle;Signal;HPM_P1;HPM_P2
2022/02/27 00:00:15;;;;;;;;;37.00;33.00;;;;;7.28;48.03;100377.19;6262242;27;97692;-67
2022/02/27 00:03:20;;;;;;;;;39.75;33.00;;;;;7.23;47.88;100376.84;6243189;27;97428;-65
2022/02/27 00:06:24;;;;;;;;;35.60;31.40;;;;;7.13;47.70;100373.44;6263764;27;96397;-66
2022/02/27 00:09:29;;;;;;;;;38.80;31.40;;;;;7.04;47.90;100377.94;6265220;27;97525;-64
2022/02/27 00:12:33;;;;;;;;;38.60;30.20;;;;;7.01;48.18;100377.41;6264439;27;96552;-64
2022/02/27 00:15:36;;;;;;;;;36.00;32.00;;;;;6.98;48.34;100367.88;6264644;27;98114;-68
2022/02/27 00:18:40;;;;;;;;;37.00;33.00;;;;;7.00;48.16;100381.94;6264774;27;96438;-66
2022/02/27 00:21:43;;;;;;;;;38.00;31.80;;;;;6.98;47.74;100386.66;6263120;27;97274;-66
2022/02/27 00:24:49;;;;;;;;;42.00;33.40;;;;;6.95;47.36;100392.31;6264167;27;96497;-66
2022/02/27 00:27:55;;;;;;;;;39.40;33.00;;;;;6.88;47.82;100399.34;6264874;27;97120;-67
2022/02/27 00:30:59;;;;;;;;;37.00;33.00;;;;;6.78;47.65;100369.97;6228638;27;99676;-65
2022/02/27 00:34:03;;;;;;;;;38.50;32.00;;;;;6.82;47.44;100392.78;6244326;27;97474;-66
2022/02/27 00:37:06;;;;;;;;;37.80;32.00;;;;;6.79;47.43;100390.41;6263951;27;97478;-67
2022/02/27 00:40:11;;;;;;;;;40.40;32.80;;;;;6.78;47.27;100391.41;6263979;27;97441;-66
2022/02/27 00:43:16;;;;;;;;;38.00;32.00;;;;;6.70;46.84;100383.31;6228180;27;97841;-66
2022/02/27 00:46:19;;;;;;;;;43.50;34.00;;;;;6.69;47.49;100389.72;6263420;27;96582;-64
2022/02/27 00:49:22;;;;;;;;;44.80;34.40;;;;;6.69;47.25;100381.66;6263559;27;96437;-66
2022/02/27 00:52:28;;;;;;;;;42.00;34.80;;;;;6.66;47.44;100381.13;6246118;27;97969;-64
2022/02/27 00:55:31;;;;;;;;;44.40;34.40;;;;;6.63;47.45;100386.81;6263183;27;97521;-66
2022/02/27 00:58:38;;;;;;;;;44.75;35.75;;;;;6.58;47.62;100378.41;6245177;27;97450;-65
2022/02/27 01:01:41;;;;;;;;;42.00;35.00;;;;;6.51;47.29;100384.41;6256567;27;98653;-65
2022/02/27 01:04:44;;;;;;;;;40.50;33.75;;;;;6.43;47.43;100376.34;6263210;27;97180;-67
2022/02/27 01:07:50;;;;;;;;;41.75;34.75;;;;;6.38;47.46;100380.47;6263455;27;96782;-64
2022/02/27 01:10:53;;;;;;;;;43.60;35.20;;;;;6.29;47.42;100387.63;6262418;27;97516;-66
2022/02/27 01:13:58;;;;;;;;;45.75;36.50;;;;;6.32;47.88;100394.50;6245600;27;97508;-66
2022/02/27 01:17:06;;;;;;;;;45.25;35.00;;;;;6.37;47.81;100392.19;6244772;27;97367;-67
2022/02/27 01:20:10;;;;;;;;;44.00;35.60;;;;;6.41;47.39;100390.88;6226091;27;98559;-66
2022/02/27 01:23:14;;;;;;;;;47.40;38.00;;;;;6.43;48.15;100400.44;6242961;27;97049;-67
2022/02/27 01:26:18;;;;;;;;;50.75;40.00;;;;;6.46;48.12;100397.44;6234297;28;96846;-66
2022/02/27 01:29:23;;;;;;;;;51.40;40.40;;;;;6.52;48.19;100406.69;6234621;28;97328;-66
2022/02/27 01:32:26;;;;;;;;;56.00;43.00;;;;;6.55;48.39;100390.28;6235991;28;97504;-66
2022/02/27 01:35:30;;;;;;;;;55.00;43.00;;;;;6.56;48.12;100393.81;6237739;28;97480;-64
2022/02/27 01:38:34;;;;;;;;;50.40;40.40;;;;;6.52;47.88;100388.78;6219387;28;98575;-65
2022/02/27 01:41:38;;;;;;;;;45.40;37.20;;;;;6.40;47.59;100395.38;6238166;28;97412;-65
2022/02/27 01:44:43;;;;;;;;;45.00;35.75;;;;;6.26;47.78;100395.97;6237795;28;96557;-66
2022/02/27 01:47:47;;;;;;;;;41.00;34.00;;;;;6.09;48.10;100395.03;6218983;28;99469;-66
2022/02/27 01:50:51;;;;;;;;;42.40;34.40;;;;;6.00;48.32;100395.97;6235790;28;96851;-66
2022/02/27 01:53:54;;;;;;;;;42.60;35.00;;;;;5.98;47.93;100400.63;6237212;27;97503;-66
2022/02/27 01:56:57;;;;;;;;;43.00;35.00;;;;;5.95;48.91;100386.72;6235353;28;96814;-66
2022/02/27 02:00:07;;;;;;;;;45.50;37.00;;;;;5.98;48.38;100392.59;6235757;28;97991;-66
2022/02/27 02:03:15;;;;;;;;;42.00;34.50;;;;;6.02;48.08;100391.28;6236018;28;97766;-67
2022/02/27 02:06:19;;;;;;;;;43.40;34.00;;;;;6.07;47.87;100396.16;6235824;27;96378;-67
2022/02/27 02:09:23;;;;;;;;;44.40;36.00;;;;;6.13;48.02;100395.56;6211589;28;97586;-64
2022/02/27 02:12:29;;;;;;;;;43.60;34.00;;;;;6.19;47.50;100402.13;6235681;28;97572;-66
2022/02/27 02:15:35;;;;;;;;;41.00;35.00;;;;;6.27;47.62;100397.66;6236706;27;97234;-67
2022/02/27 02:18:38;;;;;;;;;43.20;35.00;;;;;6.35;47.93;100403.06;6237054;28;96836;-66
2022/02/27 02:21:45;;;;;;;;;39.50;33.00;;;;;6.38;47.98;100397.41;6217920;28;97947;-64
2022/02/27 02:24:51;;;;;;;;;40.40;33.00;;;;;6.51;48.00;100405.84;6237837;27;97580;-66
2022/02/27 02:27:55;;;;;;;;;39.00;33.00;;;;;6.60;48.00;100398.69;6243937;27;96606;-67
2022/02/27 02:31:00;;;;;;;;;45.00;34.20;;;;;6.66;48.43;100403.41;6262086;27;97459;-64
2022/02/27 02:34:05;;;;;;;;;37.60;32.60;;;;;6.77;48.55;100405.81;6243510;27;97482;-65
2022/02/27 02:37:12;;;;;;;;;38.50;32.25;;;;;6.84;48.95;100404.16;6261696;27;97562;-66
2022/02/27 02:40:15;;;;;;;;;43.40;34.00;;;;;6.81;48.29;100388.41;6260933;27;96467;-65
2022/02/27 02:43:19;;;;;;;;;41.25;33.00;;;;;6.95;48.22;100405.72;6242422;27;97287;-66
2022/02/27 02:46:23;;;;;;;;;42.60;33.60;;;;;6.97;48.34;100412.63;6226137;27;98562;-67
2022/02/27 02:49:27;;;;;;;;;39.00;32.00;;;;;6.99;48.24;100420.47;6226563;27;99491;-65
2022/02/27 02:52:35;;;;;;;;;39.00;32.00;;;;;7.04;48.15;100418.16;6260162;27;97343;-68
2022/02/27 02:55:41;;;;;;;;;39.50;33.00;;;;;7.03;48.20;100415.66;6243722;27;96520;-66
2022/02/27 02:58:44;;;;;;;;;42.00;34.00;;;;;7.03;48.05;100424.53;6261645;27;97574;-68
2022/02/27 03:01:48;;;;;;;;;39.50;32.00;;;;;6.99;48.16;100412.44;6235029;28;97597;-65
2022/02/27 03:04:51;;;;;;;;;36.00;30.80;;;;;7.10;48.19;100422.03;6233338;27;97506;-66
2022/02/27 03:07:56;;;;;;;;;40.00;32.80;;;;;7.15;48.26;100428.59;6259837;27;97452;-66
2022/02/27 03:11:00;;;;;;;;;42.40;33.40;;;;;7.19;48.48;100421.91;6259551;27;97558;-65
2022/02/27 03:14:03;;;;;;;;;42.00;33.00;;;;;7.21;48.17;100427.09;6259771;27;97455;-66
2022/02/27 03:17:06;;;;;;;;;37.40;32.00;;;;;7.23;48.48;100422.44;6241227;27;97118;-66
2022/02/27 03:20:10;;;;;;;;;42.40;34.40;;;;;7.26;48.21;100422.94;6236404;27;96897;-67
2022/02/27 03:23:15;;;;;;;;;38.33;31.33;;;;;7.26;48.02;100431.00;6218096;28;96560;-68
2022/02/27 03:26:19;;;;;;;;;45.50;35.00;;;;;7.26;48.28;100431.00;6219396;27;96808;-63
2022/02/27 03:29:22;;;;;;;;;37.80;31.20;;;;;7.32;48.27;100430.34;6242902;27;96644;-64
2022/02/27 03:32:26;;;;;;;;;36.75;32.00;;;;;7.35;48.23;100421.97;6263198;27;97221;-67
2022/02/27 03:35:29;;;;;;;;;41.80;34.00;;;;;7.49;48.26;100431.22;6265083;27;96954;-63
2022/02/27 03:38:34;;;;;;;;;43.00;34.00;;;;;7.56;48.49;100434.09;6247108;27;98388;-66
2022/02/27 03:41:37;;;;;;;;;38.80;32.40;;;;;7.59;48.09;100439.97;6264980;27;97390;-63
2022/02/27 03:44:41;;;;;;;;;37.00;32.00;;;;;7.62;48.14;100442.34;6246359;27;97450;-66
2022/02/27 03:47:45;;;;;;;;;37.00;32.00;;;;;7.65;48.04;100439.31;6230441;27;98439;-67
2022/02/27 03:50:50;;;;;;;;;36.40;32.00;;;;;7.68;47.86;100438.13;6264902;27;97494;-67
2022/02/27 03:53:55;;;;;;;;;37.00;33.00;;;;;7.72;47.65;100459.09;6264894;27;96782;-65
2022/02/27 03:56:58;;;;;;;;;37.00;31.00;;;;;7.72;47.52;100459.09;6263879;27;96374;-67
2022/02/27 04:00:02;;;;;;;;;35.00;31.67;;;;;7.70;47.45;100453.06;6264556;27;96861;-65
2022/02/27 04:03:14;;;;;;;;;35.40;31.60;;;;;7.72;47.45;100448.34;6264815;27;97157;-68
2022/02/27 04:06:18;;;;;;;;;35.40;31.00;;;;;7.75;47.08;100452.56;6265110;27;97954;-67
2022/02/27 04:09:22;;;;;;;;;35.00;31.50;;;;;7.67;47.21;100450.69;6265153;27;97003;-65
2022/02/27 04:12:26;;;;;;;;;39.00;33.00;;;;;7.65;47.01;100449.19;6264852;27;97031;-65
2022/02/27 04:15:30;;;;;;;;;37.80;32.00;;;;;7.59;47.08;100453.38;6246051;27;96999;-64
2022/02/27 04:18:33;;;;;;;;;39.60;32.60;;;;;7.50;46.99;100454.38;6263254;27;97159;-65
2022/02/27 04:21:36;;;;;;;;;40.50;33.00;;;;;7.43;47.08;100447.16;6263638;27;96656;-64
2022/02/27 04:24:41;;;;;;;;;37.60;30.60;;;;;7.39;47.19;100444.78;6261904;27;98611;-64
2022/02/27 04:27:44;;;;;;;;;42.00;35.00;;;;;7.31;47.34;100439.38;6236870;27;98457;-65
2022/02/27 04:30:48;;;;;;;;;37.40;32.60;;;;;7.31;47.28;100444.75;6287018;27;96429;-65
2022/02/27 04:33:51;;;;;;;;;42.00;33.40;;;;;7.03;47.24;100403.09;6243549;27;96999;-66
2022/02/27 04:36:54;;;;;;;;;38.00;31.80;;;;;7.29;47.36;100445.91;6262285;27;96668;-64
2022/02/27 04:39:59;;;;;;;;;40.60;32.80;;;;;7.09;47.52;100404.25;6243401;27;99489;-64
2022/02/27 04:43:05;;;;;;;;;39.20;32.20;;;;;7.27;47.93;100445.25;6260414;27;99237;-64
2022/02/27 04:46:08;;;;;;;;;35.20;30.00;;;;;7.22;47.91;100451.09;6262368;27;97036;-66
2022/02/27 04:49:11;;;;;;;;;39.60;32.40;;;;;7.18;47.99;100454.28;6262674;27;96598;-65
2022/02/27 04:52:16;;;;;;;;;37.40;32.00;;;;;7.16;47.77;100451.75;6245610;27;96646;-64
2022/02/27 04:55:21;;;;;;;;;39.20;32.60;;;;;7.17;47.74;100447.22;6263690;27;97088;-64
2022/02/27 04:58:24;;;;;;;;;47.00;36.00;;;;;7.17;47.99;100455.25;6263577;27;97537;-64
2022/02/27 05:01:27;;;;;;;;;42.20;34.20;;;;;7.17;47.71;100452.59;6262864;27;96698;-66
2022/02/27 05:04:33;;;;;;;;;42.00;33.40;;;;;7.18;47.84;100455.13;6263405;27;96400;-65
2022/02/27 05:07:37;;;;;;;;;43.00;35.00;;;;;7.17;48.16;100482.09;6263837;27;96612;-66
2022/02/27 05:10:41;;;;;;;;;39.00;33.50;;;;;7.03;48.47;100456.72;6232205;27;96625;-67
2022/02/27 05:13:45;;;;;;;;;43.20;33.00;;;;;7.13;48.33;100461.97;6248039;27;96756;-64
2022/02/27 05:16:48;;;;;;;;;40.40;34.40;;;;;7.06;48.44;100455.53;6263065;27;96551;-64
2022/02/27 05:19:51;;;;;;;;;44.00;34.00;;;;;7.07;48.20;100468.81;6276150;27;97456;-64
2022/02/27 05:22:54;;;;;;;;;40.00;33.00;;;;;7.09;48.04;100463.25;6286063;27;96968;-64
2022/02/27 05:25:59;;;;;;;;;41.25;33.00;;;;;7.10;48.12;100468.47;6263721;27;97744;-65
2022/02/27 05:29:04;;;;;;;;;41.00;33.00;;;;;6.89;47.61;100430.50;6262284;27;97510;-66
2022/02/27 05:32:07;;;;;;;;;42.00;34.00;;;;;7.13;47.67;100461.97;6257937;27;97207;-65
2022/02/27 05:35:11;;;;;;;;;39.40;33.00;;;;;7.15;47.83;100465.31;6264899;27;97425;-67
2022/02/27 05:38:14;;;;;;;;;40.50;33.00;;;;;7.15;47.91;100462.63;6248124;27;99574;-64
2022/02/27 05:41:18;;;;;;;;;41.00;34.40;;;;;7.20;48.05;100468.34;6249427;27;97109;-66
2022/02/27 05:44:30;;;;;;;;;42.00;34.50;;;;;7.15;47.93;100457.25;6262095;27;96526;-65
2022/02/27 05:47:34;;;;;;;;;41.60;35.00;;;;;7.14;47.96;100463.63;6226322;27;97892;-66
2022/02/27 05:50:37;;;;;;;;;41.60;33.00;;;;;7.14;47.58;100467.13;6260668;27;96937;-68
2022/02/27 05:53:40;;;;;;;;;42.20;34.20;;;;;7.12;47.22;100471.00;6257649;27;97018;-66
2022/02/27 05:56:45;;;;;;;;;39.75;33.00;;;;;7.14;47.24;100474.34;6259380;27;97550;-67
2022/02/27 05:59:48;;;;;;;;;39.75;33.00;;;;;7.21;47.21;100480.75;6260023;27;98010;-66
2022/02/27 06:02:52;;;;;;;;;41.00;32.00;;;;;7.27;47.34;100480.97;6257157;27;97646;-64
2022/02/27 06:05:56;;;;;;;;;39.20;33.00;;;;;7.32;46.85;100494.75;6240735;27;98513;-66
2022/02/27 06:08:59;;;;;;;;;41.00;33.00;;;;;7.42;46.93;100496.44;6239462;27;96829;-66
2022/02/27 06:12:05;;;;;;;;;40.00;33.75;;;;;7.56;47.01;100499.34;6256367;27;97359;-65
2022/02/27 06:15:09;;;;;;;;;42.00;35.00;;;;;7.70;46.80;100506.75;6244287;27;97543;-63
2022/02/27 06:18:12;;;;;;;;;44.00;33.50;;;;;7.86;46.23;100514.03;6240799;27;98182;-66
2022/02/27 06:21:15;;;;;;;;;40.60;33.60;;;;;7.97;46.31;100513.69;6240447;27;97184;-65
2022/02/27 06:24:21;;;;;;;;;39.00;33.00;;;;;8.05;45.89;100519.09;6260577;27;96353;-64
2022/02/27 06:27:25;;;;;;;;;35.40;30.60;;;;;8.12;45.61;100520.09;6240745;27;98373;-65
2022/02/27 06:30:28;;;;;;;;;41.60;35.00;;;;;8.23;45.15;100530.53;6258203;27;97986;-65
2022/02/27 06:33:32;;;;;;;;;43.00;34.00;;;;;8.36;44.61;100526.50;6257569;27;97428;-66
2022/02/27 06:36:35;;;;;;;;;44.00;35.00;;;;;8.54;44.09;100532.59;6258176;27;97526;-67
2022/02/27 06:39:39;;;;;;;;;38.00;33.25;;;;;8.46;43.97;100538.78;6255315;27;96764;-66
2022/02/27 06:42:44;;;;;;;;;46.20;36.60;;;;;8.37;43.98;100542.47;6257253;27;96707;-63
2022/02/27 06:45:48;;;;;;;;;47.00;38.00;;;;;8.28;43.98;100552.38;6236251;27;98814;-67
2022/02/27 06:48:51;;;;;;;;;49.50;38.00;;;;;8.24;43.99;100552.88;6248017;27;97133;-65
2022/02/27 06:51:54;;;;;;;;;47.75;38.75;;;;;8.17;43.96;100552.66;6221589;27;98291;-65
2022/02/27 06:54:57;;;;;;;;;46.60;36.00;;;;;8.16;44.33;100556.34;6257059;27;97314;-67
2022/02/27 06:58:02;;;;;;;;;47.60;36.60;;;;;8.13;44.47;100559.38;6258951;27;96912;-65
2022/02/27 07:01:05;;;;;;;;;45.00;37.40;;;;;8.17;44.43;100563.41;6239618;27;97175;-65
2022/02/27 07:04:09;;;;;;;;;45.00;35.00;;;;;8.26;44.61;100564.25;6240597;27;99030;-64
2022/02/27 07:07:13;;;;;;;;;45.00;36.00;;;;;8.28;44.63;100564.94;6243814;27;96497;-65
2022/02/27 07:10:16;;;;;;;;;49.00;39.40;;;;;8.27;44.65;100574.00;6265316;27;96679;-67
2022/02/27 07:13:21;;;;;;;;;46.50;37.00;;;;;8.18;44.60;100561.56;6239448;27;97280;-66
2022/02/27 07:16:24;;;;;;;;;49.00;38.00;;;;;8.10;44.79;100565.09;6267062;27;96818;-63
2022/02/27 07:19:27;;;;;;;;;49.00;38.00;;;;;8.15;45.03;100570.81;6245898;27;97341;-65
2022/02/27 07:22:31;;;;;;;;;45.00;38.00;;;;;8.31;44.94;100567.31;6264784;27;97193;-66
2022/02/27 07:25:34;;;;;;;;;43.40;35.00;;;;;8.40;44.85;100569.03;6246420;27;97509;-65
2022/02/27 07:28:39;;;;;;;;;43.75;35.25;;;;;8.56;44.96;100574.41;6256711;27;98386;-66
2022/02/27 07:31:42;;;;;;;;;47.00;38.00;;;;;8.65;44.62;100577.94;6254648;27;97456;-64
2022/02/27 07:34:46;;;;;;;;;45.20;37.40;;;;;9.21;44.00;100574.34;6261391;27;98049;-63
2022/02/27 07:37:49;;;;;;;;;43.00;36.00;;;;;9.92;42.73;100565.34;6260460;27;98123;-67
2022/02/27 07:40:53;;;;;;;;;42.40;35.00;;;;;11.16;40.59;100563.19;6247262;27;97075;-64
2022/02/27 07:43:59;;;;;;;;;47.60;37.40;;;;;13.74;36.00;100558.31;6244919;27;97888;-66
2022/02/27 07:47:04;;;;;;;;;42.75;35.75;;;;;15.10;33.84;100551.72;6271297;27;96787;-66
2022/02/27 07:50:07;;;;;;;;;43.60;35.60;;;;;17.41;30.71;100562.16;6250830;27;97951;-67
2022/02/27 07:53:11;;;;;;;;;42.00;35.00;;;;;18.34;29.31;100569.03;6273699;27;96611;-65
2022/02/27 07:56:14;;;;;;;;;45.00;35.80;;;;;19.83;26.88;100554.13;6244935;27;97190;-63
2022/02/27 07:59:18;;;;;;;;;44.20;36.00;;;;;21.51;25.47;100572.50;6244339;27;97197;-65
2022/02/27 08:02:22;;;;;;;;;46.00;35.00;;;;;23.02;23.26;100558.91;6243765;27;97250;-61
2022/02/27 08:05:25;;;;;;;;;40.00;32.80;;;;;23.86;22.07;100567.97;6251272;27;98407;-66
2022/02/27 08:08:29;;;;;;;;;40.40;33.00;;;;;23.57;21.79;100567.56;6255835;27;99676;-63
2022/02/27 08:11:32;;;;;;;;;35.40;31.00;;;;;23.04;22.06;100573.19;6245572;27;99609;-64
2022/02/27 08:14:37;;;;;;;;;37.40;32.00;;;;;21.58;23.21;100568.50;6266330;27;96676;-64
2022/02/27 08:17:40;;;;;;;;;33.50;28.25;;;;;21.49;23.29;100570.03;6255470;27;96728;-65
2022/02/27 08:20:43;;;;;;;;;32.00;27.40;;;;;22.64;22.00;100563.47;6261719;27;97802;-65
2022/02/27 08:23:47;;;;;;;;;29.00;26.25;;;;;24.04;21.04;100561.19;6262882;27;97452;-68
2022/02/27 08:26:50;;;;;;;;;33.67;29.00;;;;;24.84;19.17;100565.22;6248732;27;98682;-64
2022/02/27 08:29:55;;;;;;;;;29.20;27.20;;;;;25.46;18.51;100559.44;6263011;27;98703;-64
2022/02/27 08:32:58;;;;;;;;;31.60;28.00;;;;;25.83;18.54;100559.91;6210821;27;97827;-64
2022/02/27 08:36:02;;;;;;;;;32.75;30.00;;;;;24.57;19.54;100560.81;6261453;27;97849;-63
2022/02/27 08:39:05;;;;;;;;;31.75;29.75;;;;;22.63;21.58;100549.97;6261581;27;98207;-63
2022/02/27 08:42:09;;;;;;;;;32.00;29.00;;;;;21.02;22.93;100565.94;6243884;27;97385;-66
2022/02/27 08:45:13;;;;;;;;;31.60;29.00;;;;;19.63;24.65;100557.25;6261324;27;97289;-66
2022/02/27 08:48:17;;;;;;;;;32.80;27.00;;;;;18.74;25.57;100560.28;6261514;27;97341;-63
2022/02/27 08:51:20;;;;;;;;;29.00;28.60;;;;;18.12;26.71;100554.22;6246244;27;97938;-63
2022/02/27 08:54:23;;;;;;;;;35.40;29.00;;;;;18.64;26.18;100554.53;6261544;27;97572;-63
2022/02/27 08:57:26;;;;;;;;;29.60;27.00;;;;;20.44;24.54;100552.59;6260887;27;97145;-65
2022/02/27 09:00:31;;;;;;;;;28.75;27.00;;;;;21.79;22.58;100558.63;6248355;27;97280;-61
2022/02/27 09:03:35;;;;;;;;;27.33;25.33;;;;;22.94;20.92;100554.69;6232566;27;96876;-64
2022/02/27 09:06:39;;;;;;;;;29.00;25.00;;;;;24.30;19.77;100562.09;6261364;27;96771;-64
2022/02/27 09:09:42;;;;;;;;;24.20;23.20;;;;;24.82;19.53;100556.41;6261202;27;98009;-63
2022/02/27 09:12:46;;;;;;;;;27.00;23.00;;;;;25.35;18.91;100561.38;6241086;27;99236;-63
2022/02/27 09:15:51;;;;;;;;;21.33;20.00;;;;;26.22;17.91;100556.44;6259749;27;97564;-64
2022/02/27 09:18:56;;;;;;;;;21.00;19.00;;;;;26.89;17.36;100563.22;6238845;27;98717;-63
2022/02/27 09:21:59;;;;;;;;;22.25;19.00;;;;;26.07;17.43;100554.56;6259709;27;97432;-65
2022/02/27 09:25:03;;;;;;;;;19.00;16.60;;;;;26.53;17.15;100549.63;6243200;27;98916;-67
2022/02/27 09:28:07;;;;;;;;;16.60;15.00;;;;;26.48;17.00;100555.19;6257029;27;97099;-64
2022/02/27 09:31:12;;;;;;;;;17.50;14.00;;;;;27.28;17.04;100552.91;6247727;27;97300;-66
2022/02/27 09:34:16;;;;;;;;;15.40;14.60;;;;;27.80;16.60;100549.34;6259855;27;98078;-64
2022/02/27 09:37:20;;;;;;;;;15.00;13.80;;;;;28.24;15.78;100549.06;6261799;27;97725;-65
2022/02/27 09:40:24;;;;;;;;;16.00;14.00;;;;;28.12;15.32;100545.91;6267350;27;96737;-65
2022/02/27 09:43:30;;;;;;;;;14.50;12.50;;;;;28.21;15.63;100546.06;6249188;27;98690;-66
2022/02/27 09:46:36;;;;;;;;;17.80;14.80;;;;;27.93;15.66;100536.69;6254289;27;96890;-65
2022/02/27 09:49:42;;;;;;;;;15.25;14.25;;;;;27.90;15.60;100540.91;6260616;27;97223;-67
2022/02/27 09:52:46;;;;;;;;;14.60;12.40;;;;;27.81;15.39;100531.56;6220414;27;98490;-64
2022/02/27 09:55:49;;;;;;;;;12.00;11.20;;;;;27.09;16.01;100529.81;6257638;27;97676;-65
2022/02/27 09:58:53;;;;;;;;;15.20;13.00;;;;;27.30;16.26;100527.69;6259728;27;98329;-64
2022/02/27 10:02:03;;;;;;;;;16.50;15.50;;;;;27.15;16.32;100531.44;6251310;27;98541;-62
2022/02/27 10:05:08;;;;;;;;;17.00;16.00;;;;;27.81;15.94;100534.34;6258071;27;97648;-67
2022/02/27 10:08:13;;;;;;;;;19.00;16.50;;;;;28.38;15.10;100530.56;6255669;27;96789;-63
2022/02/27 10:11:18;;;;;;;;;21.00;20.00;;;;;28.23;15.15;100532.72;6255562;27;96738;-63
2022/02/27 10:14:26;;;;;;;;;18.00;16.80;;;;;28.19;15.29;100526.97;6257095;27;97071;-63
2022/02/27 10:17:34;;;;;;;;;19.00;17.00;;;;;28.26;15.23;100526.56;6248824;27;97618;-68
2022/02/27 10:20:39;;;;;;;;;17.00;17.00;;;;;28.54;15.22;100513.69;6258252;27;97480;-65
2022/02/27 10:23:42;;;;;;;;;20.20;18.20;;;;;28.44;14.88;100517.44;6259428;27;96705;-64
2022/02/27 10:26:49;;;;;;;;;19.40;19.00;;;;;28.67;14.78;100504.59;6247492;27;98463;-66
2022/02/27 10:29:53;;;;;;;;;18.25;17.00;;;;;28.75;14.64;100501.13;6242635;27;97846;-66
2022/02/27 10:33:01;;;;;;;;;17.75;15.75;;;;;28.93;14.76;100502.25;6249734;27;97469;-66
2022/02/27 10:36:05;;;;;;;;;18.40;17.00;;;;;29.05;15.13;100492.28;6260363;27;97720;-63
2022/02/27 10:39:09;;;;;;;;;15.00;14.40;;;;;28.56;13.98;100483.66;6257670;27;97479;-66
2022/02/27 10:42:17;;;;;;;;;18.00;16.40;;;;;28.75;14.52;100488.09;6255429;27;97437;-65
2022/02/27 10:45:21;;;;;;;;;16.00;14.00;;;;;28.93;14.46;100480.03;6257216;27;96716;-65
2022/02/27 10:48:28;;;;;;;;;15.00;13.00;;;;;28.98;13.94;100482.72;6257042;27;96619;-64
2022/02/27 10:51:34;;;;;;;;;12.50;11.50;;;;;27.02;14.30;100480.34;6258697;27;97487;-67
2022/02/27 10:54:38;;;;;;;;;13.50;13.00;;;;;26.89;15.00;100467.16;6258281;27;96958;-64
2022/02/27 10:57:44;;;;;;;;;11.25;11.25;;;;;25.76;15.49;100464.59;6249030;27;97090;-65
2022/02/27 11:00:48;;;;;;;;;13.40;11.40;;;;;24.90;16.42;100462.91;6255560;27;97042;-67
2022/02/27 11:03:54;;;;;;;;;13.00;12.00;;;;;24.89;16.57;100458.50;6258916;27;97892;-65
2022/02/27 11:06:58;;;;;;;;;13.00;12.00;;;;;25.33;16.30;100453.16;6260949;27;97553;-65
2022/02/27 11:10:01;;;;;;;;;15.00;14.00;;;;;25.16;16.57;100446.31;6252127;27;100224;-65
2022/02/27 11:13:07;;;;;;;;;15.00;14.25;;;;;25.74;16.26;100445.56;6243563;27;99198;-66
2022/02/27 11:16:11;;;;;;;;;13.20;13.20;;;;;26.28;15.54;100439.19;6261845;27;97640;-65
2022/02/27 11:19:16;;;;;;;;;15.60;14.00;;;;;26.63;15.57;100438.06;6259309;27;97428;-65
2022/02/27 11:22:22;;;;;;;;;15.00;13.00;;;;;26.82;15.39;100438.16;6258744;27;97460;-65
2022/02/27 11:25:27;;;;;;;;;15.00;13.40;;;;;25.90;15.67;100429.75;6263351;27;96863;-66
2022/02/27 11:28:32;;;;;;;;;13.80;13.20;;;;;25.42;16.34;100429.38;6259444;27;97087;-65
2022/02/27 11:31:36;;;;;;;;;14.60;13.00;;;;;24.59;17.09;100428.13;6243759;27;97196;-65
2022/02/27 11:34:42;;;;;;;;;13.00;12.00;;;;;23.83;17.52;100418.94;6253553;27;96766;-66
2022/02/27 11:37:49;;;;;;;;;12.60;11.40;;;;;22.85;18.33;100416.84;6245304;27;97600;-65
2022/02/27 11:40:56;;;;;;;;;15.00;14.00;;;;;22.06;19.43;100415.06;6259945;27;97090;-65
2022/02/27 11:44:12;;;;;;;;;13.75;13.00;;;;;21.18;20.26;100411.53;6238910;27;97513;-65
2022/02/27 11:47:16;;;;;;;;;13.50;12.25;;;;;20.44;20.82;100413.69;6259515;27;96937;-67
2022/02/27 11:50:26;;;;;;;;;12.00;10.00;;;;;19.81;21.31;100412.03;6245091;27;97887;-64
2022/02/27 11:53:48;;;;;;;;;9.00;8.60;;;;;19.17;21.81;100395.91;6242822;27;97428;-65
2022/02/27 11:57:13;;;;;;;;;11.00;10.50;;;;;18.58;22.47;100392.41;6268460;27;97130;-64
2022/02/27 12:00:19;;;;;;;;;9.00;9.00;;;;;18.12;22.45;100388.56;6261091;27;96890;-63
2022/02/27 12:03:40;;;;;;;;;10.00;9.00;;;;;17.70;22.58;100384.97;6258730;27;97231;-64
2022/02/27 12:07:06;;;;;;;;;9.00;9.00;;;;;17.36;22.99;100382.06;6258979;27;97043;-65
2022/02/27 12:10:10;;;;;;;;;9.00;8.60;;;;;17.04;23.16;100379.53;6263619;27;97445;-64
2022/02/27 12:13:22;;;;;;;;;8.00;8.00;;;;;16.73;23.48;100382.38;6264553;27;97552;-63
2022/02/27 12:16:35;;;;;;;;;9.00;9.00;;;;;16.30;23.79;100355.13;6262054;27;96717;-65
2022/02/27 12:19:46;;;;;;;;;9.40;9.00;;;;;16.30;24.34;100379.63;6260057;27;97714;-64
2022/02/27 12:22:51;;;;;;;;;10.50;9.50;;;;;16.09;23.05;100372.69;6260926;27;97365;-64
2022/02/27 12:25:55;;;;;;;;;9.00;8.00;;;;;15.97;23.59;100369.84;6243197;27;97475;-64
2022/02/27 12:29:00;;;;;;;;;6.00;6.00;;;;;16.01;23.44;100381.97;6261202;27;97482;-65
2022/02/27 12:32:17;;;;;;;;;9.00;7.00;;;;;16.17;23.92;100386.03;6259980;27;97389;-65
2022/02/27 12:35:20;;;;;;;;;6.00;6.00;;;;;15.96;22.89;100381.78;6260830;27;98105;-65
2022/02/27 12:38:25;;;;;;;;;6.00;6.00;;;;;15.89;23.53;100374.72;6260266;27;97169;-65
2022/02/27 12:41:30;;;;;;;;;7.00;7.00;;;;;16.33;23.96;100377.28;6261475;27;97586;-65
2022/02/27 12:44:36;;;;;;;;;9.50;8.00;;;;;17.37;22.92;100365.50;6240449;27;99818;-65
2022/02/27 12:47:40;;;;;;;;;8.00;7.00;;;;;17.70;22.40;100360.44;6263715;27;96968;-65
2022/02/27 12:50:46;;;;;;;;;7.40;7.00;;;;;17.60;22.31;100357.44;6260847;27;97440;-65
2022/02/27 12:53:53;;;;;;;;;9.00;7.80;;;;;17.37;22.40;100365.50;6255694;27;97487;-65
2022/02/27 12:56:59;;;;;;;;;7.40;6.00;;;;;17.19;22.32;100354.63;6257612;27;97386;-64
2022/02/27 13:00:05;;;;;;;;;6.00;5.00;;;;;17.01;22.25;100365.50;6244134;27;98575;-65
2022/02/27 13:03:10;;;;;;;;;6.00;6.00;;;;;16.84;22.79;100365.31;6261604;27;96594;-66
2022/02/27 13:06:16;;;;;;;;;8.00;8.00;;;;;16.47;23.30;100364.38;6260688;27;96632;-65
2022/02/27 13:09:24;;;;;;;;;9.00;8.60;;;;;16.11;24.05;100362.41;6233417;27;99041;-64
2022/02/27 13:12:29;;;;;;;;;12.00;11.25;;;;;15.80;24.66;100367.88;6254475;27;96716;-65
2022/02/27 13:15:32;;;;;;;;;10.00;10.00;;;;;15.52;25.48;100365.56;6259676;27;96821;-68
2022/02/27 13:18:36;;;;;;;;;12.00;10.00;;;;;15.24;25.98;100367.75;6258991;27;97157;-65
2022/02/27 13:21:41;;;;;;;;;12.00;11.00;;;;;15.06;26.54;100369.28;6257456;27;96657;-65
2022/02/27 13:24:47;;;;;;;;;13.00;12.00;;;;;14.92;26.92;100364.94;6240546;27;96578;-65
2022/02/27 13:27:53;;;;;;;;;14.00;11.20;;;;;14.71;27.24;100362.50;6261753;27;97599;-66
2022/02/27 13:30:57;;;;;;;;;11.00;10.00;;;;;14.58;27.34;100376.09;6263038;27;96468;-65
2022/02/27 13:34:02;;;;;;;;;11.75;11.00;;;;;14.50;27.40;100373.63;6244907;27;97507;-65
2022/02/27 13:37:06;;;;;;;;;11.00;10.40;;;;;14.40;27.43;100370.50;6262850;27;96921;-65
2022/02/27 13:40:16;;;;;;;;;13.00;11.00;;;;;14.30;27.64;100360.03;6250075;27;97047;-65
2022/02/27 13:43:22;;;;;;;;;8.00;7.60;;;;;14.23;27.55;100365.47;6251290;27;97649;-66
2022/02/27 13:46:26;;;;;;;;;10.40;9.00;;;;;14.14;27.53;100360.47;6256303;27;97611;-65
2022/02/27 13:49:30;;;;;;;;;8.75;6.75;;;;;14.00;27.38;100356.06;6261831;27;96898;-65
2022/02/27 13:52:36;;;;;;;;;8.20;7.20;;;;;14.02;27.40;100354.84;6262275;27;96722;-65
2022/02/27 13:55:43;;;;;;;;;6.40;6.40;;;;;13.88;27.32;100350.44;6260731;27;97542;-66
2022/02/27 13:58:47;;;;;;;;;7.60;7.40;;;;;13.80;27.55;100350.63;6268140;27;98028;-65
2022/02/27 14:01:59;;;;;;;;;9.00;8.00;;;;;13.73;27.85;100344.41;6259932;27;97498;-65
2022/02/27 14:05:10;;;;;;;;;8.00;8.00;;;;;13.73;28.21;100345.19;6258173;27;97351;-65